sensor_id;sensor_type;location;lat;lon;timestamp;temperature;humidity
56869;DHT22;42754;0.000;0.000;2022-08-20T00:00:13;20.30;99.90
56869;DHT22;42754;0.000;0.000;2022-08-20T00:02:46;20.30;99.90
56869;DHT22;42754;0.000;0.000;2022-08-20T00:05:13;20.20;99.90
56869;DHT22;42754;0.000;0.000;2022-08-20T00:07:39;20.30;99.90
56869;DHT22;42754;0.000;0.000;2022-08-20T00:10:06;20.20;99.90
56869;DHT22;42754;0.000;0.000;2022-08-20T00:12:33;20.10;99.90
56869;DHT22;42754;0.000;0.000;2022-08-20T00:14:58;20.20;99.90
56869;DHT22;42754;0.000;0.000;2022-08-20T00:17:24;20.20;99.90
56869;DHT22;42754;0.000;0.000;2022-08-20T00:19:50;20.20;99.90
56869;DHT22;42754;0.000;0.000;2022-08-20T00:22:16;20.20;99.90
56869;DHT22;42754;0.000;0.000;2022-08-20T00:24:41;20.20;99.90
56869;DHT22;42754;0.000;0.000;2022-08-20T00:27:07;20.20;99.90
56869;DHT22;42754;0.000;0.000;2022-08-20T00:29:33;20.20;99.90
56869;DHT22;42754;0.000;0.000;2022-08-20T00:31:59;20.20;99.90
56869;DHT22;42754;0.000;0.000;2022-08-20T00:34:24;20.20;99.90
56869;DHT22;42754;0.000;0.000;2022-08-20T00:36:50;20.10;99.90
56869;DHT22;42754;0.000;0.000;2022-08-20T00:39:16;20.10;99.90
56869;DHT22;42754;0.000;0.000;2022-08-20T00:41:41;20.10;99.90
56869;DHT22;42754;0.000;0.000;2022-08-20T00:46:33;20.10;99.90
56869;DHT22;42754;0.000;0.000;2022-08-20T00:48:59;20.00;99.90
56869;DHT22;42754;0.000;0.000;2022-08-20T00:51:40;20.00;99.90
56869;DHT22;42754;0.000;0.000;2022-08-20T00:54:20;20.10;99.90
56869;DHT22;42754;0.000;0.000;2022-08-20T00:56:53;20.10;99.90
56869;DHT22;42754;0.000;0.000;2022-08-20T00:59:24;20.00;99.90
56869;DHT22;42754;0.000;0.000;2022-08-20T01:01:51;20.00;99.90
56869;DHT22;42754;0.000;0.000;2022-08-20T01:04:17;20.00;99.90
56869;DHT22;42754;0.000;0.000;2022-08-20T01:06:43;20.00;99.90
56869;DHT22;42754;0.000;0.000;2022-08-20T01:09:09;20.00;99.90
56869;DHT22;42754;0.000;0.000;2022-08-20T01:11:35;20.00;99.90
56869;DHT22;42754;0.000;0.000;2022-08-20T01:14:05;20.00;99.90
56869;DHT22;42754;0.000;0.000;2022-08-20T01:16:53;19.90;99.90
56869;DHT22;42754;0.000;0.000;2022-08-20T01:19:24;19.90;99.90
56869;DHT22;42754;0.000;0.000;2022-08-20T01:21:52;19.90;99.90
56869;DHT22;42754;0.000;0.000;2022-08-20T01:24:24;19.90;99.90
56869;DHT22;42754;0.000;0.000;2022-08-20T01:26:52;19.90;99.90
56869;DHT22;42754;0.000;0.000;2022-08-20T01:29:23;19.90;99.90
56869;DHT22;42754;0.000;0.000;2022-08-20T01:31:49;19.90;99.90
56869;DHT22;42754;0.000;0.000;2022-08-20T01:34:19;19.90;99.90
56869;DHT22;42754;0.000;0.000;2022-08-20T01:36:48;20.00;99.90
56869;DHT22;42754;0.000;0.000;2022-08-20T01:39:30;20.00;99.90
56869;DHT22;42754;0.000;0.000;2022-08-20T01:42:03;19.90;99.90
56869;DHT22;42754;0.000;0.000;2022-08-20T01:44:31;19.90;99.90
56869;DHT22;42754;0.000;0.000;2022-08-20T01:47:28;19.90;99.90
56869;DHT22;42754;0.000;0.000;2022-08-20T01:49:55;19.90;99.90
56869;DHT22;42754;0.000;0.000;2022-08-20T01:53:05;19.80;99.90
56869;DHT22;42754;0.000;0.000;2022-08-20T01:55:34;19.90;99.90
56869;DHT22;42754;0.000;0.000;2022-08-20T01:58:00;19.90;99.90
56869;DHT22;42754;0.000;0.000;2022-08-20T02:00:26;19.90;99.90
56869;DHT22;42754;0.000;0.000;2022-08-20T02:02:52;19.90;99.90
56869;DHT22;42754;0.000;0.000;2022-08-20T02:05:18;19.90;99.90
56869;DHT22;42754;0.000;0.000;2022-08-20T02:07:44;19.90;99.90
56869;DHT22;42754;0.000;0.000;2022-08-20T02:10:12;19.90;99.90
56869;DHT22;42754;0.000;0.000;2022-08-20T02:12:39;19.90;99.90
56869;DHT22;42754;0.000;0.000;2022-08-20T02:15:06;19.90;99.90
56869;DHT22;42754;0.000;0.000;2022-08-20T02:17:33;19.90;99.90
56869;DHT22;42754;0.000;0.000;2022-08-20T02:20:03;19.90;99.90
56869;DHT22;42754;0.000;0.000;2022-08-20T02:22:38;19.80;99.90
56869;DHT22;42754;0.000;0.000;2022-08-20T02:25:06;19.80;99.90
56869;DHT22;42754;0.000;0.000;2022-08-20T02:27:33;19.80;99.90
56869;DHT22;42754;0.000;0.000;2022-08-20T02:29:59;19.70;99.90
56869;DHT22;42754;0.000;0.000;2022-08-20T02:32:25;19.70;99.90
56869;DHT22;42754;0.000;0.000;2022-08-20T02:34:50;19.70;99.90
56869;DHT22;42754;0.000;0.000;2022-08-20T02:37:16;19.60;99.90
56869;DHT22;42754;0.000;0.000;2022-08-20T02:39:43;19.60;99.90
56869;DHT22;42754;0.000;0.000;2022-08-20T02:42:09;19.60;99.90
56869;DHT22;42754;0.000;0.000;2022-08-20T02:44:37;19.60;99.90
56869;DHT22;42754;0.000;0.000;2022-08-20T02:47:04;19.60;99.90
56869;DHT22;42754;0.000;0.000;2022-08-20T02:49:30;19.60;99.90
56869;DHT22;42754;0.000;0.000;2022-08-20T02:51:56;19.60;99.90
56869;DHT22;42754;0.000;0.000;2022-08-20T02:54:22;19.60;99.90
56869;DHT22;42754;0.000;0.000;2022-08-20T02:56:47;19.60;99.90
56869;DHT22;42754;0.000;0.000;2022-08-20T02:59:13;19.60;99.90
56869;DHT22;42754;0.000;0.000;2022-08-20T03:01:38;19.50;99.90
56869;DHT22;42754;0.000;0.000;2022-08-20T03:04:04;19.50;99.90
56869;DHT22;42754;0.000;0.000;2022-08-20T03:06:30;19.50;99.90
56869;DHT22;42754;0.000;0.000;2022-08-20T03:08:56;19.50;99.90
56869;DHT22;42754;0.000;0.000;2022-08-20T03:11:22;19.50;99.90
56869;DHT22;42754;0.000;0.000;2022-08-20T03:13:47;19.40;99.90
56869;DHT22;42754;0.000;0.000;2022-08-20T03:16:13;19.40;99.90
56869;DHT22;42754;0.000;0.000;2022-08-20T03:18:43;19.30;99.90
56869;DHT22;42754;0.000;0.000;2022-08-20T03:21:11;19.40;99.90
56869;DHT22;42754;0.000;0.000;2022-08-20T03:23:38;19.40;99.90
56869;DHT22;42754;0.000;0.000;2022-08-20T03:26:06;19.30;99.90
56869;DHT22;42754;0.000;0.000;2022-08-20T03:28:32;19.30;99.90
56869;DHT22;42754;0.000;0.000;2022-08-20T03:30:58;19.30;99.90
56869;DHT22;42754;0.000;0.000;2022-08-20T03:33:25;19.20;99.90
56869;DHT22;42754;0.000;0.000;2022-08-20T03:35:52;19.20;99.90
56869;DHT22;42754;0.000;0.000;2022-08-20T03:38:22;19.20;99.90
56869;DHT22;42754;0.000;0.000;2022-08-20T03:40:48;19.20;99.90
56869;DHT22;42754;0.000;0.000;2022-08-20T03:43:14;19.20;99.90
56869;DHT22;42754;0.000;0.000;2022-08-20T03:45:42;19.10;99.90
56869;DHT22;42754;0.000;0.000;2022-08-20T03:48:13;19.10;99.90
56869;DHT22;42754;0.000;0.000;2022-08-20T03:50:39;19.10;99.90
56869;DHT22;42754;0.000;0.000;2022-08-20T03:53:06;19.00;99.90
56869;DHT22;42754;0.000;0.000;2022-08-20T03:55:32;19.00;99.90
56869;DHT22;42754;0.000;0.000;2022-08-20T03:58:01;19.00;99.90
56869;DHT22;42754;0.000;0.000;2022-08-20T04:00:48;18.90;99.90
56869;DHT22;42754;0.000;0.000;2022-08-20T04:03:14;19.00;99.90
56869;DHT22;42754;0.000;0.000;2022-08-20T04:05:41;18.90;99.90
56869;DHT22;42754;0.000;0.000;2022-08-20T04:08:11;18.90;99.90
56869;DHT22;42754;0.000;0.000;2022-08-20T04:10:38;18.80;99.90
56869;DHT22;42754;0.000;0.000;2022-08-20T04:13:05;18.90;99.90
56869;DHT22;42754;0.000;0.000;2022-08-20T04:15:32;18.90;99.90
56869;DHT22;42754;0.000;0.000;2022-08-20T04:17:59;18.90;99.90
56869;DHT22;42754;0.000;0.000;2022-08-20T04:20:25;18.90;99.90
56869;DHT22;42754;0.000;0.000;2022-08-20T04:22:52;18.90;99.90
56869;DHT22;42754;0.000;0.000;2022-08-20T04:25:18;19.00;99.90
56869;DHT22;42754;0.000;0.000;2022-08-20T04:27:46;18.90;99.90
56869;DHT22;42754;0.000;0.000;2022-08-20T04:30:17;18.90;99.90
56869;DHT22;42754;0.000;0.000;2022-08-20T04:32:43;18.80;99.90
56869;DHT22;42754;0.000;0.000;2022-08-20T04:35:11;18.80;99.90
56869;DHT22;42754;0.000;0.000;2022-08-20T04:37:40;18.80;99.90
56869;DHT22;42754;0.000;0.000;2022-08-20T04:40:09;18.80;99.90
56869;DHT22;42754;0.000;0.000;2022-08-20T04:42:54;18.80;99.90
56869;DHT22;42754;0.000;0.000;2022-08-20T04:45:20;18.90;99.90
56869;DHT22;42754;0.000;0.000;2022-08-20T04:47:47;18.90;99.90
56869;DHT22;42754;0.000;0.000;2022-08-20T04:50:13;18.90;99.90
56869;DHT22;42754;0.000;0.000;2022-08-20T04:52:39;18.90;99.90
56869;DHT22;42754;0.000;0.000;2022-08-20T04:55:06;18.90;99.90
56869;DHT22;42754;0.000;0.000;2022-08-20T04:57:33;18.90;99.90
56869;DHT22;42754;0.000;0.000;2022-08-20T05:00:00;19.00;99.90
56869;DHT22;42754;0.000;0.000;2022-08-20T05:02:26;19.00;99.90
56869;DHT22;42754;0.000;0.000;2022-08-20T05:04:52;19.00;99.90
56869;DHT22;42754;0.000;0.000;2022-08-20T05:07:17;19.00;99.90
56869;DHT22;42754;0.000;0.000;2022-08-20T05:09:43;19.00;99.90
56869;DHT22;42754;0.000;0.000;2022-08-20T05:12:10;19.00;99.90
56869;DHT22;42754;0.000;0.000;2022-08-20T05:14:38;19.10;99.90
56869;DHT22;42754;0.000;0.000;2022-08-20T05:17:04;19.10;99.90
56869;DHT22;42754;0.000;0.000;2022-08-20T05:19:32;19.20;99.90
56869;DHT22;42754;0.000;0.000;2022-08-20T05:21:58;19.20;99.90
56869;DHT22;42754;0.000;0.000;2022-08-20T05:24:24;19.20;99.90
56869;DHT22;42754;0.000;0.000;2022-08-20T05:26:50;19.20;99.90
56869;DHT22;42754;0.000;0.000;2022-08-20T05:29:16;19.20;99.90
56869;DHT22;42754;0.000;0.000;2022-08-20T05:31:42;19.20;99.90
56869;DHT22;42754;0.000;0.000;2022-08-20T05:34:10;19.20;99.90
56869;DHT22;42754;0.000;0.000;2022-08-20T05:36:47;19.20;99.90
56869;DHT22;42754;0.000;0.000;2022-08-20T05:39:13;19.20;99.90
56869;DHT22;42754;0.000;0.000;2022-08-20T05:41:40;19.10;99.90
56869;DHT22;42754;0.000;0.000;2022-08-20T05:44:07;19.10;99.90
56869;DHT22;42754;0.000;0.000;2022-08-20T05:46:39;19.10;99.90
56869;DHT22;42754;0.000;0.000;2022-08-20T05:49:06;19.00;99.90
56869;DHT22;42754;0.000;0.000;2022-08-20T05:51:32;19.00;99.90
56869;DHT22;42754;0.000;0.000;2022-08-20T05:53:58;19.00;99.90
56869;DHT22;42754;0.000;0.000;2022-08-20T05:56:23;19.00;99.90
56869;DHT22;42754;0.000;0.000;2022-08-20T05:58:49;19.00;99.90
56869;DHT22;42754;0.000;0.000;2022-08-20T06:01:15;19.00;99.90
56869;DHT22;42754;0.000;0.000;2022-08-20T06:03:40;19.00;99.90
56869;DHT22;42754;0.000;0.000;2022-08-20T06:06:24;19.00;99.90
56869;DHT22;42754;0.000;0.000;2022-08-20T06:08:50;19.00;99.90
56869;DHT22;42754;0.000;0.000;2022-08-20T06:11:15;19.00;99.90
56869;DHT22;42754;0.000;0.000;2022-08-20T06:13:41;19.10;99.90
56869;DHT22;42754;0.000;0.000;2022-08-20T06:16:07;19.10;99.90
56869;DHT22;42754;0.000;0.000;2022-08-20T06:18:32;19.10;99.90
56869;DHT22;42754;0.000;0.000;2022-08-20T06:20:58;19.10;99.90
56869;DHT22;42754;0.000;0.000;2022-08-20T06:23:23;19.00;99.90
56869;DHT22;42754;0.000;0.000;2022-08-20T06:25:50;19.00;99.90
56869;DHT22;42754;0.000;0.000;2022-08-20T06:28:16;19.10;99.90
56869;DHT22;42754;0.000;0.000;2022-08-20T06:30:41;19.00;99.90
56869;DHT22;42754;0.000;0.000;2022-08-20T06:33:07;19.00;99.90
56869;DHT22;42754;0.000;0.000;2022-08-20T06:35:33;19.10;99.90
56869;DHT22;42754;0.000;0.000;2022-08-20T06:37:59;19.10;99.90
56869;DHT22;42754;0.000;0.000;2022-08-20T06:40:26;19.10;99.90
56869;DHT22;42754;0.000;0.000;2022-08-20T06:42:54;19.20;99.90
56869;DHT22;42754;0.000;0.000;2022-08-20T06:45:22;19.20;99.90
56869;DHT22;42754;0.000;0.000;2022-08-20T06:47:53;19.30;99.90
56869;DHT22;42754;0.000;0.000;2022-08-20T06:50:23;19.30;99.90
56869;DHT22;42754;0.000;0.000;2022-08-20T06:52:49;19.30;99.90
56869;DHT22;42754;0.000;0.000;2022-08-20T06:55:15;19.30;99.90
56869;DHT22;42754;0.000;0.000;2022-08-20T06:57:42;19.40;99.90
56869;DHT22;42754;0.000;0.000;2022-08-20T07:00:14;19.40;99.90
56869;DHT22;42754;0.000;0.000;2022-08-20T07:02:40;19.40;99.90
56869;DHT22;42754;0.000;0.000;2022-08-20T07:05:07;19.40;99.90
56869;DHT22;42754;0.000;0.000;2022-08-20T07:07:33;19.50;99.90
56869;DHT22;42754;0.000;0.000;2022-08-20T07:10:01;19.60;99.90
56869;DHT22;42754;0.000;0.000;2022-08-20T07:12:27;19.60;99.90
56869;DHT22;42754;0.000;0.000;2022-08-20T07:14:53;19.60;99.90
56869;DHT22;42754;0.000;0.000;2022-08-20T07:17:19;19.70;99.90
56869;DHT22;42754;0.000;0.000;2022-08-20T07:19:45;19.80;99.90
56869;DHT22;42754;0.000;0.000;2022-08-20T07:22:10;19.90;99.90
56869;DHT22;42754;0.000;0.000;2022-08-20T07:24:39;20.10;99.90
56869;DHT22;42754;0.000;0.000;2022-08-20T07:27:05;20.40;99.90
56869;DHT22;42754;0.000;0.000;2022-08-20T07:29:30;20.60;99.90
56869;DHT22;42754;0.000;0.000;2022-08-20T07:32:17;20.60;99.90
56869;DHT22;42754;0.000;0.000;2022-08-20T07:35:10;20.40;99.90
56869;DHT22;42754;0.000;0.000;2022-08-20T07:37:37;20.70;99.90
56869;DHT22;42754;0.000;0.000;2022-08-20T07:40:04;20.80;99.90
56869;DHT22;42754;0.000;0.000;2022-08-20T07:42:30;20.90;99.90
56869;DHT22;42754;0.000;0.000;2022-08-20T07:44:56;21.00;99.90
56869;DHT22;42754;0.000;0.000;2022-08-20T07:47:22;21.10;99.90
56869;DHT22;42754;0.000;0.000;2022-08-20T07:49:50;21.10;99.90
56869;DHT22;42754;0.000;0.000;2022-08-20T07:52:19;21.10;99.90
56869;DHT22;42754;0.000;0.000;2022-08-20T07:54:47;21.20;99.90
56869;DHT22;42754;0.000;0.000;2022-08-20T07:57:15;21.10;99.90
56869;DHT22;42754;0.000;0.000;2022-08-20T07:59:41;21.10;99.90
56869;DHT22;42754;0.000;0.000;2022-08-20T08:02:07;21.20;99.90
56869;DHT22;42754;0.000;0.000;2022-08-20T08:04:32;21.30;99.90
56869;DHT22;42754;0.000;0.000;2022-08-20T08:06:59;21.30;99.90
56869;DHT22;42754;0.000;0.000;2022-08-20T08:09:26;21.30;99.90
56869;DHT22;42754;0.000;0.000;2022-08-20T08:11:52;21.40;99.90
56869;DHT22;42754;0.000;0.000;2022-08-20T08:14:25;21.50;99.90
56869;DHT22;42754;0.000;0.000;2022-08-20T08:16:58;21.70;99.90
56869;DHT22;42754;0.000;0.000;2022-08-20T08:19:27;21.90;99.90
56869;DHT22;42754;0.000;0.000;2022-08-20T08:21:58;21.90;99.90
56869;DHT22;42754;0.000;0.000;2022-08-20T08:24:24;22.00;99.90
56869;DHT22;42754;0.000;0.000;2022-08-20T08:26:50;22.10;99.90
56869;DHT22;42754;0.000;0.000;2022-08-20T08:29:16;22.10;99.90
56869;DHT22;42754;0.000;0.000;2022-08-20T08:31:42;22.20;99.90
56869;DHT22;42754;0.000;0.000;2022-08-20T08:34:08;22.40;99.90
56869;DHT22;42754;0.000;0.000;2022-08-20T08:36:33;22.50;99.90
56869;DHT22;42754;0.000;0.000;2022-08-20T08:38:59;23.00;99.90
56869;DHT22;42754;0.000;0.000;2022-08-20T08:41:33;23.60;99.90
56869;DHT22;42754;0.000;0.000;2022-08-20T08:44:08;24.00;99.90
56869;DHT22;42754;0.000;0.000;2022-08-20T08:46:42;24.30;99.90
56869;DHT22;42754;0.000;0.000;2022-08-20T08:49:14;24.70;99.90
56869;DHT22;42754;0.000;0.000;2022-08-20T08:51:50;24.80;99.90
56869;DHT22;42754;0.000;0.000;2022-08-20T08:54:23;25.20;99.90
56869;DHT22;42754;0.000;0.000;2022-08-20T08:56:50;25.40;97.60
56869;DHT22;42754;0.000;0.000;2022-08-20T08:59:17;24.60;98.50
56869;DHT22;42754;0.000;0.000;2022-08-20T09:01:47;23.80;99.30
56869;DHT22;42754;0.000;0.000;2022-08-20T09:04:15;25.40;98.80
56869;DHT22;42754;0.000;0.000;2022-08-20T09:06:41;26.90;97.30
56869;DHT22;42754;0.000;0.000;2022-08-20T09:09:32;27.40;93.60
56869;DHT22;42754;0.000;0.000;2022-08-20T09:12:04;28.00;93.90
56869;DHT22;42754;0.000;0.000;2022-08-20T09:14:30;28.30;93.50
56869;DHT22;42754;0.000;0.000;2022-08-20T09:16:56;27.00;93.20
56869;DHT22;42754;0.000;0.000;2022-08-20T09:19:21;25.60;94.40
56869;DHT22;42754;0.000;0.000;2022-08-20T09:21:47;24.80;96.10
56869;DHT22;42754;0.000;0.000;2022-08-20T09:24:14;24.50;97.10
56869;DHT22;42754;0.000;0.000;2022-08-20T09:26:40;26.60;95.00
56869;DHT22;42754;0.000;0.000;2022-08-20T09:29:05;27.70;91.90
56869;DHT22;42754;0.000;0.000;2022-08-20T09:31:32;27.90;91.70
56869;DHT22;42754;0.000;0.000;2022-08-20T09:33:59;29.20;90.90
56869;DHT22;42754;0.000;0.000;2022-08-20T09:36:25;29.60;89.50
56869;DHT22;42754;0.000;0.000;2022-08-20T09:38:52;29.80;86.90
56869;DHT22;42754;0.000;0.000;2022-08-20T09:41:18;29.00;89.10
56869;DHT22;42754;0.000;0.000;2022-08-20T09:43:44;27.90;89.20
56869;DHT22;42754;0.000;0.000;2022-08-20T09:46:09;27.50;91.80
56869;DHT22;42754;0.000;0.000;2022-08-20T09:48:35;27.90;90.70
56869;DHT22;42754;0.000;0.000;2022-08-20T09:51:01;26.80;91.40
56869;DHT22;42754;0.000;0.000;2022-08-20T09:53:27;26.00;91.80
56869;DHT22;42754;0.000;0.000;2022-08-20T09:55:54;27.30;92.10
56869;DHT22;42754;0.000;0.000;2022-08-20T09:58:33;27.90;89.60
56869;DHT22;42754;0.000;0.000;2022-08-20T10:01:06;28.20;89.00
56869;DHT22;42754;0.000;0.000;2022-08-20T10:03:32;28.90;89.30
56869;DHT22;42754;0.000;0.000;2022-08-20T10:05:58;28.40;90.80
56869;DHT22;42754;0.000;0.000;2022-08-20T10:08:25;28.80;86.40
56869;DHT22;42754;0.000;0.000;2022-08-20T10:10:50;28.10;86.70
56869;DHT22;42754;0.000;0.000;2022-08-20T10:13:16;28.60;84.40
56869;DHT22;42754;0.000;0.000;2022-08-20T10:15:42;27.10;84.70
56869;DHT22;42754;0.000;0.000;2022-08-20T10:18:08;26.30;89.20
56869;DHT22;42754;0.000;0.000;2022-08-20T10:20:34;25.70;90.40
56869;DHT22;42754;0.000;0.000;2022-08-20T10:23:00;25.40;91.40
56869;DHT22;42754;0.000;0.000;2022-08-20T10:25:26;25.50;90.60
56869;DHT22;42754;0.000;0.000;2022-08-20T10:27:53;26.20;89.30
56869;DHT22;42754;0.000;0.000;2022-08-20T10:30:19;27.40;88.70
56869;DHT22;42754;0.000;0.000;2022-08-20T10:32:45;27.10;88.00
56869;DHT22;42754;0.000;0.000;2022-08-20T10:35:10;26.10;90.50
56869;DHT22;42754;0.000;0.000;2022-08-20T10:37:37;25.80;90.30
56869;DHT22;42754;0.000;0.000;2022-08-20T10:40:04;26.10;89.80
56869;DHT22;42754;0.000;0.000;2022-08-20T10:42:30;27.40;86.90
56869;DHT22;42754;0.000;0.000;2022-08-20T10:44:55;28.80;82.70
56869;DHT22;42754;0.000;0.000;2022-08-20T10:47:25;29.20;83.20
56869;DHT22;42754;0.000;0.000;2022-08-20T10:49:58;29.20;81.20
56869;DHT22;42754;0.000;0.000;2022-08-20T10:52:26;27.90;83.60
56869;DHT22;42754;0.000;0.000;2022-08-20T10:54:53;26.60;84.80
56869;DHT22;42754;0.000;0.000;2022-08-20T10:57:25;25.80;87.20
56869;DHT22;42754;0.000;0.000;2022-08-20T10:59:54;25.10;87.40
56869;DHT22;42754;0.000;0.000;2022-08-20T11:02:21;25.40;88.30
56869;DHT22;42754;0.000;0.000;2022-08-20T11:04:47;25.00;86.70
56869;DHT22;42754;0.000;0.000;2022-08-20T11:07:17;24.60;87.40
56869;DHT22;42754;0.000;0.000;2022-08-20T11:09:45;24.30;88.20
56869;DHT22;42754;0.000;0.000;2022-08-20T11:12:11;24.30;89.80
56869;DHT22;42754;0.000;0.000;2022-08-20T11:14:39;24.30;90.00
56869;DHT22;42754;0.000;0.000;2022-08-20T11:17:05;24.70;87.30
56869;DHT22;42754;0.000;0.000;2022-08-20T11:19:32;25.20;88.60
56869;DHT22;42754;0.000;0.000;2022-08-20T11:21:57;25.50;88.30
56869;DHT22;42754;0.000;0.000;2022-08-20T11:24:23;25.60;85.50
56869;DHT22;42754;0.000;0.000;2022-08-20T11:26:49;25.40;84.60
56869;DHT22;42754;0.000;0.000;2022-08-20T11:29:17;25.60;83.50
56869;DHT22;42754;0.000;0.000;2022-08-20T11:31:44;25.60;84.40
56869;DHT22;42754;0.000;0.000;2022-08-20T11:34:10;25.60;85.00
56869;DHT22;42754;0.000;0.000;2022-08-20T11:36:36;25.30;84.30
56869;DHT22;42754;0.000;0.000;2022-08-20T11:39:02;24.80;84.90
56869;DHT22;42754;0.000;0.000;2022-08-20T11:41:28;24.60;84.50
56869;DHT22;42754;0.000;0.000;2022-08-20T11:43:54;24.50;85.60
56869;DHT22;42754;0.000;0.000;2022-08-20T11:46:19;24.60;83.00
56869;DHT22;42754;0.000;0.000;2022-08-20T11:48:45;24.70;82.50
56869;DHT22;42754;0.000;0.000;2022-08-20T11:51:10;25.00;82.70
56869;DHT22;42754;0.000;0.000;2022-08-20T11:53:36;25.40;80.90
56869;DHT22;42754;0.000;0.000;2022-08-20T11:56:02;25.70;81.90
56869;DHT22;42754;0.000;0.000;2022-08-20T11:58:28;25.70;81.90
56869;DHT22;42754;0.000;0.000;2022-08-20T12:00:53;25.60;83.80
56869;DHT22;42754;0.000;0.000;2022-08-20T12:03:19;25.70;82.90
56869;DHT22;42754;0.000;0.000;2022-08-20T12:05:45;25.60;84.20
56869;DHT22;42754;0.000;0.000;2022-08-20T12:08:12;25.30;83.20
56869;DHT22;42754;0.000;0.000;2022-08-20T12:10:38;24.90;83.40
56869;DHT22;42754;0.000;0.000;2022-08-20T12:13:05;24.70;83.90
56869;DHT22;42754;0.000;0.000;2022-08-20T12:15:35;25.20;83.40
56869;DHT22;42754;0.000;0.000;2022-08-20T12:18:07;25.60;80.70
56869;DHT22;42754;0.000;0.000;2022-08-20T12:20:34;25.50;80.50
56869;DHT22;42754;0.000;0.000;2022-08-20T12:23:00;25.10;81.20
56869;DHT22;42754;0.000;0.000;2022-08-20T12:25:26;25.10;79.90
56869;DHT22;42754;0.000;0.000;2022-08-20T12:27:51;25.10;83.00
56869;DHT22;42754;0.000;0.000;2022-08-20T12:30:21;25.30;81.90
56869;DHT22;42754;0.000;0.000;2022-08-20T12:32:47;25.70;81.80
56869;DHT22;42754;0.000;0.000;2022-08-20T12:35:15;25.80;81.90
56869;DHT22;42754;0.000;0.000;2022-08-20T12:37:42;25.70;80.10
56869;DHT22;42754;0.000;0.000;2022-08-20T12:40:18;25.30;79.60
56869;DHT22;42754;0.000;0.000;2022-08-20T12:42:44;25.10;79.10
56869;DHT22;42754;0.000;0.000;2022-08-20T12:45:10;25.40;81.00
56869;DHT22;42754;0.000;0.000;2022-08-20T12:47:39;25.20;79.80
56869;DHT22;42754;0.000;0.000;2022-08-20T12:50:14;25.00;80.20
56869;DHT22;42754;0.000;0.000;2022-08-20T12:52:40;24.80;80.50
56869;DHT22;42754;0.000;0.000;2022-08-20T12:55:08;24.80;79.70
56869;DHT22;42754;0.000;0.000;2022-08-20T12:57:37;25.10;79.50
56869;DHT22;42754;0.000;0.000;2022-08-20T13:02:31;26.10;79.30
56869;DHT22;42754;0.000;0.000;2022-08-20T13:04:57;26.30;76.20
56869;DHT22;42754;0.000;0.000;2022-08-20T13:07:23;26.60;77.80
56869;DHT22;42754;0.000;0.000;2022-08-20T13:09:48;26.80;75.70
56869;DHT22;42754;0.000;0.000;2022-08-20T13:12:14;26.40;77.60
56869;DHT22;42754;0.000;0.000;2022-08-20T13:14:40;26.10;75.90
56869;DHT22;42754;0.000;0.000;2022-08-20T13:17:06;25.80;76.70
56869;DHT22;42754;0.000;0.000;2022-08-20T13:19:34;25.50;76.30
56869;DHT22;42754;0.000;0.000;2022-08-20T13:22:00;25.30;76.60
56869;DHT22;42754;0.000;0.000;2022-08-20T13:24:25;25.20;78.50
56869;DHT22;42754;0.000;0.000;2022-08-20T13:26:51;25.40;78.60
56869;DHT22;42754;0.000;0.000;2022-08-20T13:29:18;25.80;77.10
56869;DHT22;42754;0.000;0.000;2022-08-20T13:31:43;25.70;77.20
56869;DHT22;42754;0.000;0.000;2022-08-20T13:34:09;25.40;77.30
56869;DHT22;42754;0.000;0.000;2022-08-20T13:36:35;25.40;76.30
56869;DHT22;42754;0.000;0.000;2022-08-20T13:39:06;25.10;75.80
56869;DHT22;42754;0.000;0.000;2022-08-20T13:41:32;25.60;77.60
56869;DHT22;42754;0.000;0.000;2022-08-20T13:43:58;25.80;75.60
56869;DHT22;42754;0.000;0.000;2022-08-20T13:46:23;25.60;77.00
56869;DHT22;42754;0.000;0.000;2022-08-20T13:48:49;25.80;78.90
56869;DHT22;42754;0.000;0.000;2022-08-20T13:51:15;26.00;77.40
56869;DHT22;42754;0.000;0.000;2022-08-20T13:53:40;25.70;74.80
56869;DHT22;42754;0.000;0.000;2022-08-20T13:56:07;25.60;76.30
56869;DHT22;42754;0.000;0.000;2022-08-20T13:58:33;25.80;76.30
56869;DHT22;42754;0.000;0.000;2022-08-20T14:01:03;25.80;77.00
56869;DHT22;42754;0.000;0.000;2022-08-20T14:03:29;25.40;76.50
56869;DHT22;42754;0.000;0.000;2022-08-20T14:05:55;25.30;79.10
56869;DHT22;42754;0.000;0.000;2022-08-20T14:08:23;25.20;77.00
56869;DHT22;42754;0.000;0.000;2022-08-20T14:10:49;25.20;77.40
56869;DHT22;42754;0.000;0.000;2022-08-20T14:13:17;24.90;76.50
56869;DHT22;42754;0.000;0.000;2022-08-20T14:15:44;24.80;77.70
56869;DHT22;42754;0.000;0.000;2022-08-20T14:18:10;24.90;79.10
56869;DHT22;42754;0.000;0.000;2022-08-20T14:20:38;25.80;78.40
56869;DHT22;42754;0.000;0.000;2022-08-20T14:23:04;25.70;76.50
56869;DHT22;42754;0.000;0.000;2022-08-20T14:25:30;26.20;76.60
56869;DHT22;42754;0.000;0.000;2022-08-20T14:27:57;26.20;75.70
56869;DHT22;42754;0.000;0.000;2022-08-20T14:30:28;25.80;75.90
56869;DHT22;42754;0.000;0.000;2022-08-20T14:32:55;25.80;77.40
56869;DHT22;42754;0.000;0.000;2022-08-20T14:35:21;25.60;76.70
56869;DHT22;42754;0.000;0.000;2022-08-20T14:37:50;25.40;77.70
56869;DHT22;42754;0.000;0.000;2022-08-20T14:40:17;25.20;77.70
56869;DHT22;42754;0.000;0.000;2022-08-20T14:42:44;25.10;76.60
56869;DHT22;42754;0.000;0.000;2022-08-20T14:45:13;24.90;78.20
56869;DHT22;42754;0.000;0.000;2022-08-20T14:47:50;24.90;77.50
56869;DHT22;42754;0.000;0.000;2022-08-20T14:50:36;24.70;78.40
56869;DHT22;42754;0.000;0.000;2022-08-20T14:53:03;24.80;78.00
56869;DHT22;42754;0.000;0.000;2022-08-20T14:55:31;24.90;78.90
56869;DHT22;42754;0.000;0.000;2022-08-20T14:57:57;25.00;78.90
56869;DHT22;42754;0.000;0.000;2022-08-20T15:00:30;25.00;79.60
56869;DHT22;42754;0.000;0.000;2022-08-20T15:02:58;25.00;77.20
56869;DHT22;42754;0.000;0.000;2022-08-20T15:05:24;24.80;77.30
56869;DHT22;42754;0.000;0.000;2022-08-20T15:07:50;24.80;78.20
56869;DHT22;42754;0.000;0.000;2022-08-20T15:10:28;24.80;78.10
56869;DHT22;42754;0.000;0.000;2022-08-20T15:12:54;24.80;78.90
56869;DHT22;42754;0.000;0.000;2022-08-20T15:15:20;24.80;79.50
56869;DHT22;42754;0.000;0.000;2022-08-20T15:17:50;24.80;78.90
56869;DHT22;42754;0.000;0.000;2022-08-20T15:20:18;24.80;81.70
56869;DHT22;42754;0.000;0.000;2022-08-20T15:22:44;24.60;79.60
56869;DHT22;42754;0.000;0.000;2022-08-20T15:25:13;24.60;79.20
56869;DHT22;42754;0.000;0.000;2022-08-20T15:27:39;24.60;81.20
56869;DHT22;42754;0.000;0.000;2022-08-20T15:30:08;24.70;80.20
56869;DHT22;42754;0.000;0.000;2022-08-20T15:32:34;24.80;79.40
56869;DHT22;42754;0.000;0.000;2022-08-20T15:35:00;24.90;81.50
56869;DHT22;42754;0.000;0.000;2022-08-20T15:37:26;25.40;80.50
56869;DHT22;42754;0.000;0.000;2022-08-20T15:39:52;25.50;79.10
56869;DHT22;42754;0.000;0.000;2022-08-20T15:42:19;25.40;77.90
56869;DHT22;42754;0.000;0.000;2022-08-20T15:44:46;25.20;78.10
56869;DHT22;42754;0.000;0.000;2022-08-20T15:47:24;25.00;80.30
56869;DHT22;42754;0.000;0.000;2022-08-20T15:50:17;25.10;79.70
56869;DHT22;42754;0.000;0.000;2022-08-20T15:52:42;25.70;78.80